sensor_id;sensor_type;location;lat;lon;timestamp;P1;durP1;ratioP1;P2;durP2;ratioP2
29092;SDS011;16167;48.768;14.984;2022-10-16T00:01:07;8.65;;;4.25;;
29092;SDS011;16167;48.768;14.984;2022-10-16T00:03:37;6.40;;;4.22;;
29092;SDS011;16167;48.768;14.984;2022-10-16T00:06:06;7.82;;;4.40;;
29092;SDS011;16167;48.768;14.984;2022-10-16T00:11:05;11.50;;;4.57;;
29092;SDS011;16167;48.768;14.984;2022-10-16T00:13:34;4.90;;;4.25;;
29092;SDS011;16167;48.768;14.984;2022-10-16T00:16:03;6.75;;;4.57;;
29092;SDS011;16167;48.768;14.984;2022-10-16T00:18:34;5.45;;;4.22;;
29092;SDS011;16167;48.768;14.984;2022-10-16T00:21:04;5.28;;;3.88;;
29092;SDS011;16167;48.768;14.984;2022-10-16T00:23:34;4.57;;;3.35;;
29092;SDS011;16167;48.768;14.984;2022-10-16T00:26:03;7.38;;;3.38;;
29092;SDS011;16167;48.768;14.984;2022-10-16T00:28:33;3.75;;;2.88;;
29092;SDS011;16167;48.768;14.984;2022-10-16T00:31:03;8.48;;;4.22;;
29092;SDS011;16167;48.768;14.984;2022-10-16T00:33:32;4.90;;;4.10;;
29092;SDS011;16167;48.768;14.984;2022-10-16T00:36:02;5.18;;;4.10;;
29092;SDS011;16167;48.768;14.984;2022-10-16T00:38:31;5.72;;;3.90;;
29092;SDS011;16167;48.768;14.984;2022-10-16T00:41:00;5.05;;;3.25;;
29092;SDS011;16167;48.768;14.984;2022-10-16T00:43:39;3.72;;;2.72;;
29092;SDS011;16167;48.768;14.984;2022-10-16T00:46:11;3.85;;;3.40;;
29092;SDS011;16167;48.768;14.984;2022-10-16T00:48:45;3.88;;;3.50;;
29092;SDS011;16167;48.768;14.984;2022-10-16T00:51:19;4.80;;;3.63;;
29092;SDS011;16167;48.768;14.984;2022-10-16T00:53:52;8.48;;;3.53;;
29092;SDS011;16167;48.768;14.984;2022-10-16T00:56:21;3.80;;;3.47;;
29092;SDS011;16167;48.768;14.984;2022-10-16T00:58:49;6.18;;;3.88;;
29092;SDS011;16167;48.768;14.984;2022-10-16T01:01:18;5.55;;;3.72;;
29092;SDS011;16167;48.768;14.984;2022-10-16T01:03:46;8.45;;;4.10;;
29092;SDS011;16167;48.768;14.984;2022-10-16T01:06:21;5.30;;;3.55;;
29092;SDS011;16167;48.768;14.984;2022-10-16T01:09:04;4.15;;;3.08;;
29092;SDS011;16167;48.768;14.984;2022-10-16T01:11:41;6.18;;;3.75;;
29092;SDS011;16167;48.768;14.984;2022-10-16T01:14:15;6.82;;;3.92;;
29092;SDS011;16167;48.768;14.984;2022-10-16T01:16:52;4.80;;;3.67;;
29092;SDS011;16167;48.768;14.984;2022-10-16T01:19:26;4.45;;;3.78;;
29092;SDS011;16167;48.768;14.984;2022-10-16T01:22:13;5.33;;;3.87;;
29092;SDS011;16167;48.768;14.984;2022-10-16T01:24:43;9.55;;;4.88;;
29092;SDS011;16167;48.768;14.984;2022-10-16T01:27:20;6.75;;;4.80;;
29092;SDS011;16167;48.768;14.984;2022-10-16T01:29:53;6.10;;;4.68;;
29092;SDS011;16167;48.768;14.984;2022-10-16T01:32:26;7.65;;;4.78;;
29092;SDS011;16167;48.768;14.984;2022-10-16T01:35:04;5.85;;;4.30;;
29092;SDS011;16167;48.768;14.984;2022-10-16T01:37:37;5.85;;;4.47;;
29092;SDS011;16167;48.768;14.984;2022-10-16T01:40:11;6.82;;;4.35;;
29092;SDS011;16167;48.768;14.984;2022-10-16T01:42:44;5.55;;;3.72;;
29092;SDS011;16167;48.768;14.984;2022-10-16T01:45:15;7.68;;;3.97;;
29092;SDS011;16167;48.768;14.984;2022-10-16T01:47:46;5.47;;;3.85;;
29092;SDS011;16167;48.768;14.984;2022-10-16T01:50:17;7.25;;;3.83;;
29092;SDS011;16167;48.768;14.984;2022-10-16T01:52:48;5.53;;;3.90;;
29092;SDS011;16167;48.768;14.984;2022-10-16T01:55:19;5.57;;;3.65;;
29092;SDS011;16167;48.768;14.984;2022-10-16T01:57:55;6.75;;;3.72;;
29092;SDS011;16167;48.768;14.984;2022-10-16T02:00:27;4.88;;;3.80;;
29092;SDS011;16167;48.768;14.984;2022-10-16T02:02:56;6.40;;;4.10;;
29092;SDS011;16167;48.768;14.984;2022-10-16T02:05:28;9.82;;;4.38;;
29092;SDS011;16167;48.768;14.984;2022-10-16T02:08:01;4.43;;;4.03;;
29092;SDS011;16167;48.768;14.984;2022-10-16T02:10:31;7.00;;;4.25;;
29092;SDS011;16167;48.768;14.984;2022-10-16T02:13:05;9.68;;;4.20;;
29092;SDS011;16167;48.768;14.984;2022-10-16T02:15:36;6.95;;;3.90;;
29092;SDS011;16167;48.768;14.984;2022-10-16T02:18:04;4.72;;;3.25;;
29092;SDS011;16167;48.768;14.984;2022-10-16T02:20:36;5.43;;;3.53;;
29092;SDS011;16167;48.768;14.984;2022-10-16T02:23:09;5.13;;;3.72;;
29092;SDS011;16167;48.768;14.984;2022-10-16T02:25:42;5.93;;;3.10;;
29092;SDS011;16167;48.768;14.984;2022-10-16T02:28:15;7.57;;;4.00;;
29092;SDS011;16167;48.768;14.984;2022-10-16T02:30:47;5.65;;;4.30;;
29092;SDS011;16167;48.768;14.984;2022-10-16T02:33:18;4.85;;;4.15;;
29092;SDS011;16167;48.768;14.984;2022-10-16T02:35:49;7.55;;;3.80;;
29092;SDS011;16167;48.768;14.984;2022-10-16T02:38:18;4.75;;;3.83;;
29092;SDS011;16167;48.768;14.984;2022-10-16T02:40:48;6.40;;;4.05;;
29092;SDS011;16167;48.768;14.984;2022-10-16T02:43:18;6.38;;;4.07;;
29092;SDS011;16167;48.768;14.984;2022-10-16T02:45:46;4.00;;;3.60;;
29092;SDS011;16167;48.768;14.984;2022-10-16T02:48:14;5.78;;;3.50;;
29092;SDS011;16167;48.768;14.984;2022-10-16T02:50:42;4.05;;;3.67;;
29092;SDS011;16167;48.768;14.984;2022-10-16T02:53:10;5.40;;;3.45;;
29092;SDS011;16167;48.768;14.984;2022-10-16T02:55:38;4.97;;;3.67;;
29092;SDS011;16167;48.768;14.984;2022-10-16T02:58:06;4.18;;;3.45;;
29092;SDS011;16167;48.768;14.984;2022-10-16T03:00:36;5.43;;;3.55;;
29092;SDS011;16167;48.768;14.984;2022-10-16T03:03:04;4.10;;;3.22;;
29092;SDS011;16167;48.768;14.984;2022-10-16T03:05:32;4.60;;;2.95;;
29092;SDS011;16167;48.768;14.984;2022-10-16T03:08:01;6.93;;;3.55;;
29092;SDS011;16167;48.768;14.984;2022-10-16T03:10:29;4.97;;;3.50;;
29092;SDS011;16167;48.768;14.984;2022-10-16T03:12:57;3.65;;;3.35;;
29092;SDS011;16167;48.768;14.984;2022-10-16T03:15:25;7.53;;;4.25;;
29092;SDS011;16167;48.768;14.984;2022-10-16T03:17:56;5.82;;;3.60;;
29092;SDS011;16167;48.768;14.984;2022-10-16T03:20:25;5.05;;;3.65;;
29092;SDS011;16167;48.768;14.984;2022-10-16T03:22:54;5.72;;;3.95;;
29092;SDS011;16167;48.768;14.984;2022-10-16T03:25:22;4.35;;;3.92;;
29092;SDS011;16167;48.768;14.984;2022-10-16T03:27:50;4.88;;;3.88;;
29092;SDS011;16167;48.768;14.984;2022-10-16T03:30:18;6.57;;;3.58;;
29092;SDS011;16167;48.768;14.984;2022-10-16T03:32:47;7.50;;;3.10;;
29092;SDS011;16167;48.768;14.984;2022-10-16T03:35:21;3.65;;;3.35;;
29092;SDS011;16167;48.768;14.984;2022-10-16T03:37:50;3.75;;;3.30;;
29092;SDS011;16167;48.768;14.984;2022-10-16T03:40:18;4.78;;;3.75;;
29092;SDS011;16167;48.768;14.984;2022-10-16T03:42:46;3.57;;;3.10;;
29092;SDS011;16167;48.768;14.984;2022-10-16T03:45:15;5.78;;;3.78;;
29092;SDS011;16167;48.768;14.984;2022-10-16T03:47:43;6.25;;;3.78;;
29092;SDS011;16167;48.768;14.984;2022-10-16T03:50:11;4.10;;;3.42;;
29092;SDS011;16167;48.768;14.984;2022-10-16T03:52:41;3.40;;;3.10;;
29092;SDS011;16167;48.768;14.984;2022-10-16T03:55:09;4.22;;;3.83;;
29092;SDS011;16167;48.768;14.984;2022-10-16T03:57:37;3.50;;;3.17;;
29092;SDS011;16167;48.768;14.984;2022-10-16T04:00:05;4.28;;;3.78;;
29092;SDS011;16167;48.768;14.984;2022-10-16T04:02:34;4.40;;;3.33;;
29092;SDS011;16167;48.768;14.984;2022-10-16T04:05:02;4.65;;;3.60;;
29092;SDS011;16167;48.768;14.984;2022-10-16T04:07:31;4.95;;;4.47;;
29092;SDS011;16167;48.768;14.984;2022-10-16T04:10:00;4.32;;;3.92;;
29092;SDS011;16167;48.768;14.984;2022-10-16T04:12:28;5.60;;;3.47;;
29092;SDS011;16167;48.768;14.984;2022-10-16T04:14:56;6.38;;;3.60;;
29092;SDS011;16167;48.768;14.984;2022-10-16T04:17:25;4.85;;;3.78;;
29092;SDS011;16167;48.768;14.984;2022-10-16T04:19:53;4.35;;;3.95;;
29092;SDS011;16167;48.768;14.984;2022-10-16T04:22:22;5.03;;;3.92;;
29092;SDS011;16167;48.768;14.984;2022-10-16T04:24:50;9.38;;;4.13;;
29092;SDS011;16167;48.768;14.984;2022-10-16T04:27:19;6.63;;;3.55;;
29092;SDS011;16167;48.768;14.984;2022-10-16T04:29:47;3.80;;;3.45;;
29092;SDS011;16167;48.768;14.984;2022-10-16T04:32:15;5.55;;;3.75;;
29092;SDS011;16167;48.768;14.984;2022-10-16T04:34:44;5.28;;;3.80;;
29092;SDS011;16167;48.768;14.984;2022-10-16T04:37:12;7.82;;;4.50;;
29092;SDS011;16167;48.768;14.984;2022-10-16T04:39:40;7.85;;;4.70;;
29092;SDS011;16167;48.768;14.984;2022-10-16T04:42:08;5.57;;;4.07;;
29092;SDS011;16167;48.768;14.984;2022-10-16T04:44:38;5.50;;;4.13;;
29092;SDS011;16167;48.768;14.984;2022-10-16T04:49:34;6.07;;;4.18;;
29092;SDS011;16167;48.768;14.984;2022-10-16T04:52:02;4.80;;;4.32;;
29092;SDS011;16167;48.768;14.984;2022-10-16T04:54:30;6.38;;;4.93;;
29092;SDS011;16167;48.768;14.984;2022-10-16T04:56:58;7.00;;;4.57;;
29092;SDS011;16167;48.768;14.984;2022-10-16T04:59:26;6.03;;;4.50;;
29092;SDS011;16167;48.768;14.984;2022-10-16T05:01:56;6.57;;;4.47;;
29092;SDS011;16167;48.768;14.984;2022-10-16T05:04:24;7.70;;;4.40;;
29092;SDS011;16167;48.768;14.984;2022-10-16T05:06:52;4.70;;;4.22;;
29092;SDS011;16167;48.768;14.984;2022-10-16T05:09:20;5.25;;;4.50;;
29092;SDS011;16167;48.768;14.984;2022-10-16T05:11:48;4.55;;;3.78;;
29092;SDS011;16167;48.768;14.984;2022-10-16T05:14:16;5.82;;;4.38;;
29092;SDS011;16167;48.768;14.984;2022-10-16T05:16:45;6.13;;;4.45;;
29092;SDS011;16167;48.768;14.984;2022-10-16T05:19:15;7.25;;;4.40;;
29092;SDS011;16167;48.768;14.984;2022-10-16T05:21:59;5.30;;;3.70;;
29092;SDS011;16167;48.768;14.984;2022-10-16T05:24:27;6.85;;;4.55;;
29092;SDS011;16167;48.768;14.984;2022-10-16T05:26:55;6.10;;;4.38;;
29092;SDS011;16167;48.768;14.984;2022-10-16T05:29:23;4.68;;;4.22;;
29092;SDS011;16167;48.768;14.984;2022-10-16T05:31:52;4.65;;;4.13;;
29092;SDS011;16167;48.768;14.984;2022-10-16T05:34:22;4.32;;;3.90;;
29092;SDS011;16167;48.768;14.984;2022-10-16T05:36:50;4.60;;;3.70;;
29092;SDS011;16167;48.768;14.984;2022-10-16T05:39:18;5.95;;;4.28;;
29092;SDS011;16167;48.768;14.984;2022-10-16T05:41:46;5.55;;;4.10;;
29092;SDS011;16167;48.768;14.984;2022-10-16T05:44:18;8.63;;;4.70;;
29092;SDS011;16167;48.768;14.984;2022-10-16T05:46:46;5.45;;;4.15;;
29092;SDS011;16167;48.768;14.984;2022-10-16T05:49:15;6.57;;;4.32;;
29092;SDS011;16167;48.768;14.984;2022-10-16T05:51:44;6.38;;;4.60;;
29092;SDS011;16167;48.768;14.984;2022-10-16T05:54:12;5.97;;;4.35;;
29092;SDS011;16167;48.768;14.984;2022-10-16T05:56:41;5.70;;;4.32;;
29092;SDS011;16167;48.768;14.984;2022-10-16T05:59:09;4.65;;;4.20;;
29092;SDS011;16167;48.768;14.984;2022-10-16T06:01:37;9.32;;;4.15;;
29092;SDS011;16167;48.768;14.984;2022-10-16T06:04:05;5.20;;;4.40;;
29092;SDS011;16167;48.768;14.984;2022-10-16T06:06:33;4.65;;;4.25;;
29092;SDS011;16167;48.768;14.984;2022-10-16T06:09:03;4.75;;;4.35;;
29092;SDS011;16167;48.768;14.984;2022-10-16T06:11:32;6.20;;;4.80;;
29092;SDS011;16167;48.768;14.984;2022-10-16T06:14:01;5.30;;;4.50;;
29092;SDS011;16167;48.768;14.984;2022-10-16T06:16:33;4.43;;;4.03;;
29092;SDS011;16167;48.768;14.984;2022-10-16T06:19:02;4.82;;;4.43;;
29092;SDS011;16167;48.768;14.984;2022-10-16T06:21:32;6.57;;;4.53;;
29092;SDS011;16167;48.768;14.984;2022-10-16T06:24:00;5.90;;;4.53;;
29092;SDS011;16167;48.768;14.984;2022-10-16T06:26:30;4.88;;;4.47;;
29092;SDS011;16167;48.768;14.984;2022-10-16T06:28:58;4.82;;;4.38;;
29092;SDS011;16167;48.768;14.984;2022-10-16T06:31:27;6.57;;;4.97;;
29092;SDS011;16167;48.768;14.984;2022-10-16T06:33:57;4.65;;;4.25;;
29092;SDS011;16167;48.768;14.984;2022-10-16T06:36:26;7.40;;;4.47;;
29092;SDS011;16167;48.768;14.984;2022-10-16T06:38:55;4.95;;;4.45;;
29092;SDS011;16167;48.768;14.984;2022-10-16T06:41:23;5.68;;;4.20;;
29092;SDS011;16167;48.768;14.984;2022-10-16T06:43:53;4.63;;;3.88;;
29092;SDS011;16167;48.768;14.984;2022-10-16T06:48:50;5.50;;;3.17;;
29092;SDS011;16167;48.768;14.984;2022-10-16T06:51:19;3.88;;;3.15;;
29092;SDS011;16167;48.768;14.984;2022-10-16T06:53:49;3.42;;;3.13;;
29092;SDS011;16167;48.768;14.984;2022-10-16T06:56:34;3.72;;;3.20;;
29092;SDS011;16167;48.768;14.984;2022-10-16T06:59:05;5.45;;;4.10;;
29092;SDS011;16167;48.768;14.984;2022-10-16T07:01:33;5.78;;;4.05;;
29092;SDS011;16167;48.768;14.984;2022-10-16T07:04:01;6.07;;;3.95;;
29092;SDS011;16167;48.768;14.984;2022-10-16T07:06:30;4.60;;;3.60;;
29092;SDS011;16167;48.768;14.984;2022-10-16T07:09:00;7.88;;;3.30;;
29092;SDS011;16167;48.768;14.984;2022-10-16T07:11:31;7.18;;;3.22;;
29092;SDS011;16167;48.768;14.984;2022-10-16T07:13:59;4.22;;;3.85;;
29092;SDS011;16167;48.768;14.984;2022-10-16T07:16:30;4.90;;;3.30;;
29092;SDS011;16167;48.768;14.984;2022-10-16T07:19:03;5.05;;;3.40;;
29092;SDS011;16167;48.768;14.984;2022-10-16T07:21:31;3.78;;;3.17;;
29092;SDS011;16167;48.768;14.984;2022-10-16T07:24:02;6.10;;;4.10;;
29092;SDS011;16167;48.768;14.984;2022-10-16T07:26:33;3.67;;;3.20;;
29092;SDS011;16167;48.768;14.984;2022-10-16T07:29:03;4.10;;;3.10;;
29092;SDS011;16167;48.768;14.984;2022-10-16T07:31:33;5.18;;;3.75;;
29092;SDS011;16167;48.768;14.984;2022-10-16T07:36:29;3.42;;;2.90;;
29092;SDS011;16167;48.768;14.984;2022-10-16T07:38:57;6.00;;;3.67;;
29092;SDS011;16167;48.768;14.984;2022-10-16T07:41:26;5.63;;;4.07;;
29092;SDS011;16167;48.768;14.984;2022-10-16T07:43:54;4.70;;;3.60;;
29092;SDS011;16167;48.768;14.984;2022-10-16T07:46:26;6.35;;;3.60;;
29092;SDS011;16167;48.768;14.984;2022-10-16T07:48:56;4.30;;;3.20;;
29092;SDS011;16167;48.768;14.984;2022-10-16T07:53:52;5.22;;;3.33;;
29092;SDS011;16167;48.768;14.984;2022-10-16T07:56:21;7.13;;;3.60;;
29092;SDS011;16167;48.768;14.984;2022-10-16T07:58:49;3.22;;;2.85;;
29092;SDS011;16167;48.768;14.984;2022-10-16T08:01:18;3.25;;;2.95;;
29092;SDS011;16167;48.768;14.984;2022-10-16T08:03:47;4.97;;;3.10;;
29092;SDS011;16167;48.768;14.984;2022-10-16T08:06:18;4.53;;;2.58;;
29092;SDS011;16167;48.768;14.984;2022-10-16T08:08:53;5.32;;;2.42;;
29092;SDS011;16167;48.768;14.984;2022-10-16T08:11:22;4.22;;;2.03;;
29092;SDS011;16167;48.768;14.984;2022-10-16T08:13:50;2.77;;;2.03;;
29092;SDS011;16167;48.768;14.984;2022-10-16T08:16:18;3.00;;;1.80;;
29092;SDS011;16167;48.768;14.984;2022-10-16T08:18:47;2.33;;;2.00;;
29092;SDS011;16167;48.768;14.984;2022-10-16T08:21:20;5.03;;;2.67;;
29092;SDS011;16167;48.768;14.984;2022-10-16T08:23:50;1.70;;;1.60;;
29092;SDS011;16167;48.768;14.984;2022-10-16T08:26:24;3.90;;;1.90;;
29092;SDS011;16167;48.768;14.984;2022-10-16T08:28:52;3.50;;;2.00;;
29092;SDS011;16167;48.768;14.984;2022-10-16T08:31:21;2.20;;;1.60;;
29092;SDS011;16167;48.768;14.984;2022-10-16T08:33:50;3.58;;;1.55;;
29092;SDS011;16167;48.768;14.984;2022-10-16T08:36:20;1.60;;;1.30;;
29092;SDS011;16167;48.768;14.984;2022-10-16T08:38:48;9.27;;;2.00;;
29092;SDS011;16167;48.768;14.984;2022-10-16T08:44:25;1.42;;;1.33;;
29092;SDS011;16167;48.768;14.984;2022-10-16T08:47:13;3.63;;;1.30;;
29092;SDS011;16167;48.768;14.984;2022-10-16T08:49:50;2.47;;;1.40;;
29092;SDS011;16167;48.768;14.984;2022-10-16T08:52:28;1.60;;;1.33;;
29092;SDS011;16167;48.768;14.984;2022-10-16T08:54:59;1.20;;;1.10;;
29092;SDS011;16167;48.768;14.984;2022-10-16T08:57:28;1.50;;;1.40;;
29092;SDS011;16167;48.768;14.984;2022-10-16T09:00:00;3.85;;;2.42;;
29092;SDS011;16167;48.768;14.984;2022-10-16T09:02:37;3.67;;;1.05;;
29092;SDS011;16167;48.768;14.984;2022-10-16T09:08:08;2.17;;;1.05;;
29092;SDS011;16167;48.768;14.984;2022-10-16T09:10:45;1.50;;;1.40;;
29092;SDS011;16167;48.768;14.984;2022-10-16T09:13:20;1.75;;;1.10;;
29092;SDS011;16167;48.768;14.984;2022-10-16T09:15:55;0.88;;;0.88;;
29092;SDS011;16167;48.768;14.984;2022-10-16T09:18:29;2.10;;;1.08;;
29092;SDS011;16167;48.768;14.984;2022-10-16T09:21:06;0.85;;;0.75;;
29092;SDS011;16167;48.768;14.984;2022-10-16T09:23:39;1.88;;;1.00;;
29092;SDS011;16167;48.768;14.984;2022-10-16T09:26:09;1.35;;;0.70;;
29092;SDS011;16167;48.768;14.984;2022-10-16T09:28:40;1.48;;;0.93;;
29092;SDS011;16167;48.768;14.984;2022-10-16T09:31:11;1.65;;;1.10;;
29092;SDS011;16167;48.768;14.984;2022-10-16T09:33:43;1.60;;;1.40;;
29092;SDS011;16167;48.768;14.984;2022-10-16T09:36:15;2.80;;;1.30;;
29092;SDS011;16167;48.768;14.984;2022-10-16T09:41:16;3.13;;;1.20;;
29092;SDS011;16167;48.768;14.984;2022-10-16T09:43:47;2.03;;;1.20;;
29092;SDS011;16167;48.768;14.984;2022-10-16T09:46:26;1.50;;;1.20;;
29092;SDS011;16167;48.768;14.984;2022-10-16T09:48:57;3.35;;;1.00;;
29092;SDS011;16167;48.768;14.984;2022-10-16T09:51:27;2.55;;;1.25;;
29092;SDS011;16167;48.768;14.984;2022-10-16T09:53:59;1.33;;;1.08;;
29092;SDS011;16167;48.768;14.984;2022-10-16T09:56:29;1.45;;;1.08;;
29092;SDS011;16167;48.768;14.984;2022-10-16T09:59:00;1.33;;;1.08;;
29092;SDS011;16167;48.768;14.984;2022-10-16T10:01:36;1.88;;;1.30;;
29092;SDS011;16167;48.768;14.984;2022-10-16T10:04:06;1.63;;;1.08;;
29092;SDS011;16167;48.768;14.984;2022-10-16T10:06:35;3.88;;;1.38;;
29092;SDS011;16167;48.768;14.984;2022-10-16T10:09:15;2.08;;;1.60;;
29092;SDS011;16167;48.768;14.984;2022-10-16T10:11:47;1.00;;;1.00;;
29092;SDS011;16167;48.768;14.984;2022-10-16T10:14:19;1.10;;;1.00;;
29092;SDS011;16167;48.768;14.984;2022-10-16T10:17:00;0.90;;;0.90;;
29092;SDS011;16167;48.768;14.984;2022-10-16T10:19:37;2.42;;;1.33;;
29092;SDS011;16167;48.768;14.984;2022-10-16T10:22:13;2.25;;;0.90;;
29092;SDS011;16167;48.768;14.984;2022-10-16T10:24:55;1.02;;;0.93;;
29092;SDS011;16167;48.768;14.984;2022-10-16T10:27:26;0.65;;;0.65;;
29092;SDS011;16167;48.768;14.984;2022-10-16T10:30:04;1.02;;;0.93;;
29092;SDS011;16167;48.768;14.984;2022-10-16T10:32:39;1.42;;;0.80;;
29092;SDS011;16167;48.768;14.984;2022-10-16T10:35:18;3.53;;;2.43;;
29092;SDS011;16167;48.768;14.984;2022-10-16T10:37:59;1.63;;;1.25;;
29092;SDS011;16167;48.768;14.984;2022-10-16T10:40:45;2.35;;;1.10;;
29092;SDS011;16167;48.768;14.984;2022-10-16T10:43:26;1.13;;;0.82;;
29092;SDS011;16167;48.768;14.984;2022-10-16T10:46:05;1.63;;;1.40;;
29092;SDS011;16167;48.768;14.984;2022-10-16T10:48:45;1.67;;;1.08;;
29092;SDS011;16167;48.768;14.984;2022-10-16T10:51:28;1.98;;;1.10;;
29092;SDS011;16167;48.768;14.984;2022-10-16T10:54:06;1.50;;;1.40;;
29092;SDS011;16167;48.768;14.984;2022-10-16T10:56:45;2.53;;;1.30;;
29092;SDS011;16167;48.768;14.984;2022-10-16T10:59:25;1.92;;;1.55;;
29092;SDS011;16167;48.768;14.984;2022-10-16T11:02:20;1.40;;;1.20;;
29092;SDS011;16167;48.768;14.984;2022-10-16T11:04:59;2.15;;;1.02;;
29092;SDS011;16167;48.768;14.984;2022-10-16T11:07:45;1.30;;;1.00;;
29092;SDS011;16167;48.768;14.984;2022-10-16T11:10:18;0.90;;;0.90;;
29092;SDS011;16167;48.768;14.984;2022-10-16T11:12:51;1.00;;;0.80;;
29092;SDS011;16167;48.768;14.984;2022-10-16T11:15:23;1.00;;;0.90;;
29092;SDS011;16167;48.768;14.984;2022-10-16T11:17:57;3.95;;;1.00;;
29092;SDS011;16167;48.768;14.984;2022-10-16T11:20:33;1.23;;;1.10;;
29092;SDS011;16167;48.768;14.984;2022-10-16T11:23:06;0.90;;;0.80;;
29092;SDS011;16167;48.768;14.984;2022-10-16T11:25:41;1.08;;;0.98;;
29092;SDS011;16167;48.768;14.984;2022-10-16T11:28:13;2.15;;;1.20;;
29092;SDS011;16167;48.768;14.984;2022-10-16T11:30:44;3.78;;;1.10;;
29092;SDS011;16167;48.768;14.984;2022-10-16T11:33:23;2.63;;;0.82;;
29092;SDS011;16167;48.768;14.984;2022-10-16T11:36:00;1.30;;;0.90;;
29092;SDS011;16167;48.768;14.984;2022-10-16T11:38:32;0.88;;;0.85;;
29092;SDS011;16167;48.768;14.984;2022-10-16T11:41:10;0.77;;;0.77;;
29092;SDS011;16167;48.768;14.984;2022-10-16T11:43:48;1.05;;;0.90;;
29092;SDS011;16167;48.768;14.984;2022-10-16T11:46:25;1.98;;;0.73;;
29092;SDS011;16167;48.768;14.984;2022-10-16T11:48:56;1.35;;;0.70;;
29092;SDS011;16167;48.768;14.984;2022-10-16T11:51:32;0.60;;;0.60;;
29092;SDS011;16167;48.768;14.984;2022-10-16T11:54:04;1.58;;;0.77;;
29092;SDS011;16167;48.768;14.984;2022-10-16T11:56:42;0.93;;;0.77;;
29092;SDS011;16167;48.768;14.984;2022-10-16T11:59:16;0.93;;;0.93;;
29092;SDS011;16167;48.768;14.984;2022-10-16T12:01:53;0.60;;;0.60;;
29092;SDS011;16167;48.768;14.984;2022-10-16T12:04:28;1.58;;;0.73;;
29092;SDS011;16167;48.768;14.984;2022-10-16T12:07:03;1.02;;;0.50;;
29092;SDS011;16167;48.768;14.984;2022-10-16T12:09:35;1.75;;;0.60;;
29092;SDS011;16167;48.768;14.984;2022-10-16T12:15:01;1.63;;;1.20;;
29092;SDS011;16167;48.768;14.984;2022-10-16T12:18:00;0.63;;;0.43;;
29092;SDS011;16167;48.768;14.984;2022-10-16T12:20:29;1.55;;;0.88;;
29092;SDS011;16167;48.768;14.984;2022-10-16T12:22:59;1.35;;;0.60;;
29092;SDS011;16167;48.768;14.984;2022-10-16T12:25:29;0.57;;;0.57;;
29092;SDS011;16167;48.768;14.984;2022-10-16T12:28:03;2.40;;;0.70;;
29092;SDS011;16167;48.768;14.984;2022-10-16T12:30:34;0.60;;;0.55;;
29092;SDS011;16167;48.768;14.984;2022-10-16T12:33:04;0.70;;;0.63;;
29092;SDS011;16167;48.768;14.984;2022-10-16T12:35:43;1.08;;;0.60;;
29092;SDS011;16167;48.768;14.984;2022-10-16T12:38:16;1.55;;;0.75;;
29092;SDS011;16167;48.768;14.984;2022-10-16T12:40:46;0.50;;;0.50;;
29092;SDS011;16167;48.768;14.984;2022-10-16T12:43:26;1.45;;;0.80;;
29092;SDS011;16167;48.768;14.984;2022-10-16T12:46:05;3.25;;;1.25;;
29092;SDS011;16167;48.768;14.984;2022-10-16T12:48:48;1.20;;;1.00;;
29092;SDS011;16167;48.768;14.984;2022-10-16T12:51:34;1.65;;;0.80;;
29092;SDS011;16167;48.768;14.984;2022-10-16T12:54:05;3.50;;;1.27;;
29092;SDS011;16167;48.768;14.984;2022-10-16T12:56:41;0.90;;;0.90;;
29092;SDS011;16167;48.768;14.984;2022-10-16T13:01:59;0.85;;;0.85;;
29092;SDS011;16167;48.768;14.984;2022-10-16T13:04:47;2.15;;;0.90;;
29092;SDS011;16167;48.768;14.984;2022-10-16T13:07:36;1.00;;;0.88;;
29092;SDS011;16167;48.768;14.984;2022-10-16T13:10:20;0.82;;;0.82;;
29092;SDS011;16167;48.768;14.984;2022-10-16T13:13:00;0.90;;;0.90;;
29092;SDS011;16167;48.768;14.984;2022-10-16T13:15:46;1.13;;;1.00;;
29092;SDS011;16167;48.768;14.984;2022-10-16T13:18:35;2.10;;;1.00;;
29092;SDS011;16167;48.768;14.984;2022-10-16T13:21:18;1.60;;;0.98;;
29092;SDS011;16167;48.768;14.984;2022-10-16T13:23:55;1.20;;;1.10;;
29092;SDS011;16167;48.768;14.984;2022-10-16T13:26:31;2.35;;;1.10;;
29092;SDS011;16167;48.768;14.984;2022-10-16T13:29:08;3.60;;;1.08;;
29092;SDS011;16167;48.768;14.984;2022-10-16T13:31:37;0.95;;;0.95;;
29092;SDS011;16167;48.768;14.984;2022-10-16T13:34:09;1.30;;;1.20;;
29092;SDS011;16167;48.768;14.984;2022-10-16T13:36:43;2.13;;;0.95;;
29092;SDS011;16167;48.768;14.984;2022-10-16T13:39:13;1.10;;;1.00;;
29092;SDS011;16167;48.768;14.984;2022-10-16T13:41:44;1.02;;;1.02;;
29092;SDS011;16167;48.768;14.984;2022-10-16T13:44:13;1.40;;;1.30;;
29092;SDS011;16167;48.768;14.984;2022-10-16T13:46:43;1.20;;;0.98;;
29092;SDS011;16167;48.768;14.984;2022-10-16T13:49:14;2.00;;;1.27;;
29092;SDS011;16167;48.768;14.984;2022-10-16T13:51:53;2.47;;;1.00;;
29092;SDS011;16167;48.768;14.984;2022-10-16T13:54:22;1.42;;;1.33;;
29092;SDS011;16167;48.768;14.984;2022-10-16T13:56:51;2.03;;;1.50;;
29092;SDS011;16167;48.768;14.984;2022-10-16T13:59:35;1.95;;;1.10;;
29092;SDS011;16167;48.768;14.984;2022-10-16T14:02:08;1.05;;;1.05;;
29092;SDS011;16167;48.768;14.984;2022-10-16T14:04:47;1.50;;;1.35;;
29092;SDS011;16167;48.768;14.984;2022-10-16T14:07:18;1.80;;;1.42;;
29092;SDS011;16167;48.768;14.984;2022-10-16T14:09:50;2.58;;;1.50;;
29092;SDS011;16167;48.768;14.984;2022-10-16T14:12:20;1.73;;;1.58;;
29092;SDS011;16167;48.768;14.984;2022-10-16T14:14:54;1.73;;;1.63;;
29092;SDS011;16167;48.768;14.984;2022-10-16T14:17:25;2.17;;;1.80;;
29092;SDS011;16167;48.768;14.984;2022-10-16T14:19:56;3.03;;;2.08;;
29092;SDS011;16167;48.768;14.984;2022-10-16T14:22:32;2.80;;;2.08;;
29092;SDS011;16167;48.768;14.984;2022-10-16T14:25:02;2.45;;;2.25;;
29092;SDS011;16167;48.768;14.984;2022-10-16T14:27:56;3.25;;;2.20;;
29092;SDS011;16167;48.768;14.984;2022-10-16T14:30:25;2.70;;;2.50;;
29092;SDS011;16167;48.768;14.984;2022-10-16T14:32:55;2.60;;;2.40;;
29092;SDS011;16167;48.768;14.984;2022-10-16T14:35:27;2.78;;;2.58;;
29092;SDS011;16167;48.768;14.984;2022-10-16T14:37:58;2.95;;;2.33;;
29092;SDS011;16167;48.768;14.984;2022-10-16T14:40:28;3.78;;;2.60;;
29092;SDS011;16167;48.768;14.984;2022-10-16T14:42:58;4.35;;;2.83;;
29092;SDS011;16167;48.768;14.984;2022-10-16T14:45:28;4.32;;;3.92;;
29092;SDS011;16167;48.768;14.984;2022-10-16T14:48:00;3.50;;;3.25;;
29092;SDS011;16167;48.768;14.984;2022-10-16T14:50:34;7.65;;;3.53;;
29092;SDS011;16167;48.768;14.984;2022-10-16T14:53:04;3.85;;;3.45;;
29092;SDS011;16167;48.768;14.984;2022-10-16T14:55:38;3.72;;;3.13;;
29092;SDS011;16167;48.768;14.984;2022-10-16T14:58:08;3.55;;;3.25;;
29092;SDS011;16167;48.768;14.984;2022-10-16T15:00:42;4.32;;;3.15;;
29092;SDS011;16167;48.768;14.984;2022-10-16T15:03:10;5.60;;;3.10;;
29092;SDS011;16167;48.768;14.984;2022-10-16T15:05:40;5.70;;;3.73;;
29092;SDS011;16167;48.768;14.984;2022-10-16T15:08:08;5.60;;;3.17;;
29092;SDS011;16167;48.768;14.984;2022-10-16T15:10:38;4.72;;;3.30;;
29092;SDS011;16167;48.768;14.984;2022-10-16T15:13:09;3.60;;;3.08;;
29092;SDS011;16167;48.768;14.984;2022-10-16T15:15:41;3.20;;;2.90;;
29092;SDS011;16167;48.768;14.984;2022-10-16T15:18:10;3.95;;;3.00;;
29092;SDS011;16167;48.768;14.984;2022-10-16T15:20:42;4.88;;;3.22;;
29092;SDS011;16167;48.768;14.984;2022-10-16T15:23:12;3.30;;;3.10;;
29092;SDS011;16167;48.768;14.984;2022-10-16T15:25:42;4.85;;;3.50;;
29092;SDS011;16167;48.768;14.984;2022-10-16T15:28:12;5.20;;;3.22;;